createdAt,value
2019-04-22T00:00:55.992Z,99113.94
2019-04-22T00:03:33.960Z,99106.28
2019-04-22T00:06:14.796Z,99096.27
2019-04-22T00:08:49.114Z,99089.80
2019-04-22T00:11:25.890Z,99088.24
2019-04-22T00:13:52.024Z,99086.66
2019-04-22T00:16:26.448Z,99086.30
2019-04-22T00:21:25.817Z,99082.80
2019-04-22T00:23:51.943Z,99087.39
2019-04-22T00:26:26.095Z,99077.38
2019-04-22T00:31:31.669Z,99072.51
2019-04-22T00:33:58.878Z,99070.43
2019-04-22T00:36:28.925Z,99071.33
2019-04-22T00:39:07.156Z,99077.27
2019-04-22T00:41:40.575Z,99071.52
2019-04-22T00:44:02.933Z,99069.33
2019-04-22T00:46:39.683Z,99065.87
2019-04-22T00:49:43.886Z,99066.14
2019-04-22T00:51:36.883Z,99072.22
2019-04-22T00:54:03.315Z,99070.95
2019-04-22T00:56:38.692Z,99070.34
2019-04-22T00:59:01.360Z,99078.95
2019-04-22T01:01:32.113Z,99069.30
2019-04-22T01:06:35.802Z,99072.60
2019-04-22T01:09:04.655Z,99070.36
2019-04-22T01:11:37.735Z,99069.71
2019-04-22T01:14:01.290Z,99067.64
2019-04-22T01:16:35.695Z,99061.31
2019-04-22T01:19:09.026Z,99066.20
2019-04-22T01:24:05.857Z,99058.91
2019-04-22T01:26:34.510Z,99052.92
2019-04-22T01:29:01.050Z,99055.52
2019-04-22T01:31:25.329Z,99053.91
2019-04-22T01:34:05.438Z,99050.69
2019-04-22T01:36:43.156Z,99045.66
2019-04-22T01:39:18.175Z,99042.55
2019-04-22T01:41:55.399Z,99039.64
2019-04-22T01:44:22.875Z,99035.44
2019-04-22T01:46:54.010Z,99032.26
2019-04-22T01:49:21.460Z,99032.73
2019-04-22T01:59:14.015Z,99025.50
2019-04-22T02:01:49.944Z,99029.72
2019-04-22T02:04:26.948Z,99030.04
2019-04-22T02:06:52.367Z,99030.03
2019-04-22T02:09:22.472Z,99027.14
2019-04-22T02:11:56.908Z,99023.73
2019-04-22T02:14:26.973Z,99023.44
2019-04-22T02:16:56.133Z,99014.19
2019-04-22T02:19:23.524Z,99015.19
2019-04-22T02:21:51.610Z,99007.73
2019-04-22T02:24:26.476Z,99013.76
2019-04-22T02:26:49.884Z,99008.73
2019-04-22T02:29:27.022Z,99010.98
2019-04-22T02:31:59.414Z,99008.56
2019-04-22T02:36:58.285Z,99000.00
2019-04-22T02:39:24.523Z,99005.19
2019-04-22T02:41:57.691Z,98998.70
2019-04-22T02:44:33.268Z,98998.23
2019-04-22T02:47:18.346Z,98995.02
2019-04-22T02:51:52.207Z,98994.52
2019-04-22T02:54:44.667Z,98986.59
2019-04-22T02:56:56.473Z,98985.14
2019-04-22T03:01:54.215Z,98985.80
2019-04-22T03:06:50.497Z,98983.84
2019-04-22T03:12:21.982Z,98980.31
2019-04-22T03:14:30.718Z,98983.85
2019-04-22T03:16:57.800Z,98978.98
2019-04-22T03:19:46.827Z,98983.22
2019-04-22T03:22:02.415Z,98973.52
2019-04-22T03:24:46.271Z,98977.41
2019-04-22T03:27:01.100Z,98975.45
2019-04-22T03:30:40.234Z,98975.45
2019-04-22T03:35:31.665Z,98979.97
2019-04-22T03:37:43.186Z,98974.81
2019-04-22T03:40:14.315Z,98974.81
2019-04-22T03:42:37.475Z,98973.84
2019-04-22T03:45:14.702Z,98978.04
2019-04-22T03:47:36.659Z,98974.31
2019-04-22T03:52:26.971Z,98977.56
2019-04-22T03:55:09.168Z,98979.49
2019-04-22T03:57:49.644Z,98976.73
2019-04-22T04:00:08.273Z,98977.06
2019-04-22T04:04:58.732Z,98974.14
2019-04-22T04:07:48.406Z,98974.14
2019-04-22T04:10:10.494Z,98974.80
2019-04-22T04:12:38.512Z,98980.30
2019-04-22T04:20:10.967Z,98970.11
2019-04-22T04:22:56.132Z,98975.45
2019-04-22T04:27:55.602Z,98981.27
2019-04-22T04:30:13.966Z,98983.38
2019-04-22T04:32:50.069Z,98985.81
2019-04-22T04:35:23.658Z,98981.91
2019-04-22T04:37:45.097Z,98983.83
2019-04-22T04:40:25.054Z,98982.52
2019-04-22T04:58:09.604Z,98988.22
2019-04-22T05:02:48.941Z,98982.06
2019-04-22T05:07:43.528Z,98978.11
2019-04-22T05:12:52.717Z,98986.10
2019-04-22T05:15:18.516Z,98993.59
2019-04-22T05:17:45.542Z,98994.44
2019-04-22T05:20:28.996Z,98999.30
2019-04-22T05:22:41.300Z,99001.16
2019-04-22T05:25:13.108Z,99000.31
2019-04-22T05:27:40.014Z,99009.09
2019-04-22T05:32:43.229Z,99004.45
2019-04-22T05:35:14.328Z,99004.14
2019-04-22T05:37:43.248Z,99007.02
2019-04-22T05:40:19.311Z,99004.09
2019-04-22T05:42:39.506Z,99007.78
2019-04-22T05:45:11.731Z,99013.34
2019-04-22T05:47:44.410Z,99009.49
2019-04-22T05:50:08.177Z,99003.97
2019-04-22T05:52:52.653Z,98998.09
2019-04-22T05:55:43.593Z,99001.06
2019-04-22T05:57:59.736Z,98997.84
2019-04-22T06:00:35.505Z,98998.80
2019-04-22T06:05:24.491Z,98996.66
2019-04-22T06:07:53.793Z,99001.14
2019-04-22T06:10:35.804Z,98986.60
2019-04-22T06:12:59.649Z,98987.02
2019-04-22T06:15:29.678Z,98990.47
2019-04-22T06:18:09.607Z,98984.55
2019-04-22T06:20:37.364Z,98983.44
2019-04-22T06:23:04.456Z,98980.41
2019-04-22T06:25:49.290Z,98991.23
2019-04-22T06:28:15.814Z,98983.94
2019-04-22T06:30:35.714Z,98987.39
2019-04-22T06:33:09.417Z,98988.15
2019-04-22T06:35:45.704Z,98994.70
2019-04-22T06:38:25.688Z,98989.80
2019-04-22T06:40:42.292Z,98991.81
2019-04-22T06:43:09.163Z,98984.53
2019-04-22T06:45:35.635Z,98998.62
2019-04-22T06:53:09.189Z,99001.16
2019-04-22T06:55:43.905Z,98993.36
2019-04-22T06:58:10.057Z,98984.73
2019-04-22T07:00:42.918Z,98993.60
2019-04-22T07:03:28.703Z,98989.00
2019-04-22T07:05:41.267Z,98992.98
2019-04-22T07:08:30.413Z,98987.95
2019-04-22T07:10:43.662Z,98993.16
2019-04-22T07:13:17.390Z,99002.64
2019-04-22T07:15:50.392Z,99002.83
2019-04-22T07:18:18.088Z,98996.02
2019-04-22T07:20:44.203Z,99002.80
2019-04-22T07:23:17.762Z,99007.95
2019-04-22T07:25:49.280Z,99003.89
2019-04-22T07:31:02.355Z,99003.98
2019-04-22T07:38:17.526Z,99005.56
2019-04-22T07:40:51.881Z,99010.30
2019-04-22T07:43:19.963Z,99011.39
2019-04-22T07:48:26.173Z,99002.63
2019-04-22T07:51:05.535Z,99003.66
2019-04-22T07:53:13.240Z,99004.88
2019-04-22T07:55:50.510Z,99008.83
2019-04-22T07:58:18.699Z,99000.04
2019-04-22T08:00:53.348Z,99006.02
2019-04-22T08:03:18.377Z,98992.95
2019-04-22T08:06:00.068Z,99002.34
2019-04-22T08:08:26.132Z,98994.20
2019-04-22T08:10:48.613Z,99005.30
2019-04-22T08:13:16.956Z,99001.17
2019-04-22T08:15:54.219Z,99000.73
2019-04-22T08:18:21.994Z,99006.31
2019-04-22T08:20:47.210Z,99001.27
2019-04-22T08:23:23.737Z,99004.94
2019-04-22T08:25:49.507Z,98996.83
2019-04-22T08:28:26.586Z,99002.97
2019-04-22T08:30:55.067Z,99012.00
2019-04-22T08:36:09.050Z,99003.22
2019-04-22T08:38:30.872Z,99003.23
2019-04-22T08:41:16.548Z,98998.59
2019-04-22T08:43:48.273Z,99007.16
2019-04-22T08:46:18.632Z,99000.49
2019-04-22T08:48:47.856Z,99013.55
2019-04-22T08:51:19.640Z,99011.77
2019-04-22T08:53:53.743Z,99005.69
2019-04-22T08:56:28.019Z,98997.16
2019-04-22T08:58:50.759Z,98995.41
2019-04-22T09:01:20.802Z,98989.27
2019-04-22T09:03:46.914Z,98989.93
2019-04-22T09:06:20.141Z,98990.20
2019-04-22T09:08:50.069Z,98999.58
2019-04-22T09:11:20.216Z,98988.61
2019-04-22T09:13:50.697Z,98998.86
2019-04-22T09:16:19.336Z,99000.21
2019-04-22T09:18:48.684Z,98991.41
2019-04-22T09:21:31.619Z,98989.59
2019-04-22T09:23:52.604Z,98992.55
2019-04-22T09:28:53.756Z,98998.74
2019-04-22T09:31:19.598Z,98996.16
2019-04-22T09:33:45.993Z,98992.64
2019-04-22T09:36:22.757Z,98984.48
2019-04-22T09:38:46.627Z,98975.70
2019-04-22T09:41:23.842Z,98978.09
2019-04-22T09:43:53.387Z,98984.98
2019-04-22T09:46:22.770Z,98981.28
2019-04-22T09:48:56.405Z,98979.69
2019-04-22T09:51:18.633Z,98972.23
2019-04-22T09:53:54.870Z,98962.66
2019-04-22T09:56:23.838Z,98967.72
2019-04-22T09:58:49.198Z,98968.19
2019-04-22T10:03:56.178Z,98966.08
2019-04-22T10:06:29.388Z,98969.71
2019-04-22T10:09:24.056Z,98977.31
2019-04-22T10:11:27.938Z,98973.87
2019-04-22T10:13:53.818Z,98966.69
2019-04-22T10:16:29.187Z,98964.70
2019-04-22T10:18:52.863Z,98968.09
2019-04-22T10:21:36.513Z,98954.36
2019-04-22T10:23:53.572Z,98965.23
2019-04-22T10:26:30.079Z,98957.47
2019-04-22T10:31:31.068Z,98946.69
2019-04-22T10:33:48.198Z,98940.84
2019-04-22T10:35:59.392Z,98945.49
2019-04-22T10:38:28.407Z,98953.74
2019-04-22T10:40:58.585Z,98943.06
2019-04-22T10:43:27.557Z,98948.64
2019-04-22T10:45:56.133Z,98948.56
2019-04-22T10:48:26.078Z,98945.84
2019-04-22T10:50:54.917Z,98949.27
2019-04-22T10:53:23.833Z,98947.92
2019-04-22T10:55:52.371Z,98946.84
2019-04-22T10:58:22.367Z,98944.73
2019-04-22T11:00:52.266Z,98954.95
2019-04-22T11:03:22.484Z,98943.77
2019-04-22T11:05:53.931Z,98939.02
2019-04-22T11:08:31.617Z,98943.27
2019-04-22T11:11:08.316Z,98943.63
2019-04-22T11:13:22.216Z,98957.40
2019-04-22T11:15:51.052Z,98942.03
2019-04-22T11:18:20.046Z,98945.44
2019-04-22T11:20:49.574Z,98946.16
2019-04-22T11:23:18.671Z,98944.87
2019-04-22T11:25:47.996Z,98935.70
2019-04-22T11:28:18.003Z,98941.41
2019-04-22T11:30:48.134Z,98945.51
2019-04-22T11:33:18.288Z,98944.50
2019-04-22T11:35:47.972Z,98939.02
2019-04-22T11:38:17.238Z,98932.41
2019-04-22T11:40:51.724Z,98930.28
2019-04-22T11:43:16.445Z,98936.44
2019-04-22T11:45:45.230Z,98935.89
2019-04-22T11:48:15.300Z,98928.81
2019-04-22T11:50:44.086Z,98932.08
2019-04-22T11:53:13.107Z,98924.71
2019-04-22T11:55:42.575Z,98929.38
2019-04-22T11:58:12.708Z,98911.69
2019-04-22T12:00:43.122Z,98909.64
2019-04-22T12:03:12.673Z,98924.84
2019-04-22T12:05:41.699Z,98911.86
2019-04-22T12:08:11.271Z,98914.19
2019-04-22T12:10:48.305Z,98911.23
2019-04-22T12:13:10.387Z,98920.80
2019-04-22T12:15:40.622Z,98908.05
2019-04-22T12:18:11.208Z,98927.39
2019-04-22T12:20:41.291Z,98922.42
2019-04-22T12:23:11.146Z,98921.02
2019-04-22T12:25:48.745Z,98916.88
2019-04-22T12:28:11.164Z,98913.42
2019-04-22T12:30:39.872Z,98919.81
2019-04-22T12:33:11.017Z,98905.67
2019-04-22T12:35:38.829Z,98914.53
2019-04-22T12:38:10.270Z,98897.41
2019-04-22T12:40:46.775Z,98891.05
2019-04-22T12:43:10.262Z,98901.61
2019-04-22T12:45:38.558Z,98905.88
2019-04-22T12:48:08.704Z,98903.56
2019-04-22T12:50:41.785Z,98904.81
2019-04-22T12:53:13.753Z,98904.92
2019-04-22T12:55:38.019Z,98890.70
2019-04-22T12:58:07.622Z,98886.72
2019-04-22T13:00:36.422Z,98890.70
2019-04-22T13:03:05.598Z,98895.39
2019-04-22T13:05:35.265Z,98888.02
2019-04-22T13:08:05.453Z,98889.36
2019-04-22T13:10:45.650Z,98895.34
2019-04-22T13:13:04.987Z,98890.63
2019-04-22T13:15:35.098Z,98883.33
2019-04-22T13:18:14.931Z,98888.15
2019-04-22T13:20:34.545Z,98873.98
2019-04-22T13:23:04.041Z,98873.81
2019-04-22T13:25:32.654Z,98879.86
2019-04-22T13:28:01.143Z,98878.86
2019-04-22T13:30:32.580Z,98880.28
2019-04-22T13:33:02.600Z,98873.46
2019-04-22T13:35:31.835Z,98869.86
2019-04-22T13:38:01.249Z,98858.27
2019-04-22T13:40:30.773Z,98860.90
2019-04-22T13:43:00.771Z,98852.36
2019-04-22T13:45:29.807Z,98845.16
2019-04-22T13:48:16.678Z,98853.62
2019-04-22T13:51:01.000Z,98847.72
2019-04-22T13:58:16.081Z,98829.60
2019-04-22T14:00:34.596Z,98828.30
2019-04-22T14:03:08.910Z,98824.10
2019-04-22T14:05:40.466Z,98835.04
2019-04-22T14:08:10.697Z,98830.10
2019-04-22T14:10:40.587Z,98837.30
2019-04-22T14:13:09.954Z,98830.41
2019-04-22T14:15:40.134Z,98833.16
2019-04-22T14:18:08.937Z,98827.31
2019-04-22T14:20:38.687Z,98836.34
2019-04-22T14:23:08.333Z,98833.20
2019-04-22T14:25:38.692Z,98835.57
2019-04-22T14:28:13.071Z,98832.48
2019-04-22T14:30:38.788Z,98836.33
2019-04-22T14:33:07.359Z,98825.83
2019-04-22T14:35:38.010Z,98827.14
2019-04-22T14:38:06.521Z,98811.91
2019-04-22T14:40:37.257Z,98815.42
2019-04-22T14:43:29.015Z,98796.69
2019-04-22T14:46:08.175Z,98810.72
2019-04-22T14:48:36.262Z,98799.95
2019-04-22T14:50:57.696Z,98790.13
2019-04-22T14:53:29.370Z,98787.13
2019-04-22T14:55:38.440Z,98807.98
2019-04-22T14:58:08.900Z,98801.26
2019-04-22T15:00:38.316Z,98801.83
2019-04-22T15:03:08.239Z,98804.94
2019-04-22T15:05:37.413Z,98791.55
2019-04-22T15:08:06.991Z,98789.02
2019-04-22T15:10:36.198Z,98789.66
2019-04-22T15:13:05.416Z,98795.22
2019-04-22T15:15:56.823Z,98789.40
2019-04-22T15:18:31.830Z,98792.14
2019-04-22T15:21:05.007Z,98791.94
2019-04-22T15:23:34.805Z,98784.77
2019-04-22T15:26:04.597Z,98780.64
2019-04-22T15:28:33.445Z,98783.20
2019-04-22T15:31:03.484Z,98780.55
2019-04-22T15:33:33.099Z,98784.13
2019-04-22T15:36:01.724Z,98789.75
2019-04-22T15:38:30.344Z,98770.80
2019-04-22T15:40:58.874Z,98774.75
2019-04-22T15:43:31.142Z,98776.47
2019-04-22T15:46:00.447Z,98779.89
2019-04-22T15:48:28.870Z,98770.30
2019-04-22T15:50:58.447Z,98778.08
2019-04-22T15:53:27.605Z,98774.41
2019-04-22T15:55:56.596Z,98764.27
2019-04-22T15:58:25.818Z,98770.59
2019-04-22T16:01:06.195Z,98766.35
2019-04-22T16:03:24.888Z,98757.64
2019-04-22T16:05:54.441Z,98759.47
2019-04-22T16:08:24.534Z,98769.88
2019-04-22T16:10:53.708Z,98764.92
2019-04-22T16:13:25.532Z,98760.36
2019-04-22T16:15:52.614Z,98757.17
2019-04-22T16:18:22.488Z,98753.69
2019-04-22T16:20:52.445Z,98750.89
2019-04-22T16:23:27.875Z,98758.17
2019-04-22T16:26:00.926Z,98749.85
2019-04-22T16:28:29.508Z,98750.67
2019-04-22T16:30:59.481Z,98748.98
2019-04-22T16:33:28.214Z,98747.55
2019-04-22T16:35:56.727Z,98734.78
2019-04-22T16:38:26.761Z,98735.90
2019-04-22T16:40:56.838Z,98735.56
2019-04-22T16:43:26.604Z,98733.92
2019-04-22T16:45:55.850Z,98737.14
2019-04-22T16:48:25.560Z,98736.44
2019-04-22T16:50:54.981Z,98733.97
2019-04-22T16:53:25.292Z,98738.89
2019-04-22T16:55:54.879Z,98727.44
2019-04-22T16:58:25.039Z,98730.05
2019-04-22T17:00:54.676Z,98730.50
2019-04-22T17:03:31.123Z,98724.89
2019-04-22T17:06:07.863Z,98727.65
2019-04-22T17:08:37.041Z,98723.83
2019-04-22T17:11:07.340Z,98722.86
2019-04-22T17:13:38.080Z,98725.59
2019-04-22T17:16:07.176Z,98726.24
2019-04-22T17:18:37.090Z,98718.14
2019-04-22T17:21:08.469Z,98724.92
2019-04-22T17:23:37.915Z,98725.19
2019-04-22T17:26:06.653Z,98729.11
2019-04-22T17:28:35.536Z,98726.62
2019-04-22T17:31:04.735Z,98725.80
2019-04-22T17:33:34.882Z,98729.92
2019-04-22T17:36:03.620Z,98734.02
2019-04-22T17:38:43.781Z,98728.28
2019-04-22T17:41:20.521Z,98732.47
2019-04-22T17:44:12.215Z,98728.13
2019-04-22T17:46:19.354Z,98728.11
2019-04-22T17:48:59.183Z,98730.89
2019-04-22T17:56:30.876Z,98728.82
2019-04-22T17:59:17.204Z,98730.55
2019-04-22T18:01:29.518Z,98727.20
2019-04-22T18:03:48.627Z,98726.42
2019-04-22T18:06:34.837Z,98727.84
2019-04-22T18:09:01.764Z,98726.13
2019-04-22T18:11:40.097Z,98729.78
2019-04-22T18:14:14.238Z,98728.73
2019-04-22T18:16:34.460Z,98730.34
2019-04-22T18:19:00.754Z,98730.70
2019-04-22T18:21:26.439Z,98737.78
2019-04-22T18:23:54.019Z,98742.20
2019-04-22T18:26:32.138Z,98738.73
2019-04-22T18:29:02.422Z,98737.88
2019-04-22T18:31:26.906Z,98734.20
2019-04-22T18:33:56.432Z,98731.11
2019-04-22T18:36:29.075Z,98739.70
2019-04-22T18:39:11.175Z,98736.94
2019-04-22T18:41:36.856Z,98736.61
2019-04-22T18:44:06.064Z,98729.30
2019-04-22T18:46:33.010Z,98738.81
2019-04-22T18:49:03.384Z,98737.13
2019-04-22T18:51:42.559Z,98740.71
2019-04-22T18:54:11.925Z,98739.62
2019-04-22T18:56:43.777Z,98743.19
2019-04-22T18:58:59.386Z,98742.94
2019-04-22T19:01:21.815Z,98744.13
2019-04-22T19:04:01.308Z,98743.37
2019-04-22T19:09:16.729Z,98747.44
2019-04-22T19:11:52.183Z,98749.26
2019-04-22T19:14:10.171Z,98744.72
2019-04-22T19:17:07.909Z,98746.84
2019-04-22T19:21:43.313Z,98747.06
2019-04-22T19:24:09.472Z,98746.29
2019-04-22T19:26:58.700Z,98748.64
2019-04-22T19:29:13.434Z,98748.58
2019-04-22T19:31:49.786Z,98748.73
2019-04-22T19:34:17.739Z,98743.28
2019-04-22T19:36:48.393Z,98745.13
2019-04-22T19:39:13.182Z,98741.61
2019-04-22T19:41:53.587Z,98740.02
2019-04-22T19:44:14.588Z,98740.97
2019-04-22T19:46:55.647Z,98738.65
2019-04-22T19:49:24.594Z,98742.68
2019-04-22T19:51:53.912Z,98738.33
2019-04-22T19:54:14.040Z,98728.41
2019-04-22T19:56:38.352Z,98725.76
2019-04-22T19:59:12.123Z,98725.00
2019-04-22T20:01:47.211Z,98723.03
2019-04-22T20:04:31.481Z,98722.53
2019-04-22T20:06:53.504Z,98722.00
2019-04-22T20:09:30.124Z,98727.87
2019-04-22T20:11:59.624Z,98728.17
2019-04-22T20:14:29.821Z,98728.73
2019-04-22T20:16:54.773Z,98727.09
2019-04-22T20:19:39.826Z,98724.00
2019-04-22T20:22:02.637Z,98724.52
2019-04-22T20:24:16.838Z,98724.80
2019-04-22T20:27:02.942Z,98722.04
2019-04-22T20:29:38.368Z,98722.13
2019-04-22T20:32:05.538Z,98725.70
2019-04-22T20:34:40.886Z,98721.22
2019-04-22T20:37:10.220Z,98717.67
2019-04-22T20:39:40.943Z,98717.69
2019-04-22T20:42:19.454Z,98724.25
2019-04-22T20:44:39.538Z,98720.17
2019-04-22T20:47:04.667Z,98712.09
2019-04-22T20:49:38.330Z,98717.05
2019-04-22T20:52:16.355Z,98716.95
2019-04-22T20:54:37.250Z,98719.14
2019-04-22T20:57:04.306Z,98712.72
2019-04-22T20:59:32.951Z,98714.52
2019-04-22T21:02:03.127Z,98713.91
2019-04-22T21:04:26.097Z,98712.09
2019-04-22T21:07:01.896Z,98709.89
2019-04-22T21:09:35.550Z,98706.80
2019-04-22T21:12:02.163Z,98707.02
2019-04-22T21:14:32.442Z,98705.78
2019-04-22T21:17:11.911Z,98699.09
2019-04-22T21:22:08.050Z,98707.30
2019-04-22T21:24:36.091Z,98702.63
2019-04-22T21:27:14.092Z,98699.31
2019-04-22T21:29:33.595Z,98695.17
2019-04-22T21:32:10.461Z,98697.05
2019-04-22T21:34:47.556Z,98695.18
2019-04-22T21:37:17.031Z,98687.73
2019-04-22T21:39:40.170Z,98690.31
2019-04-22T21:42:11.871Z,98683.73
2019-04-22T21:44:38.076Z,98683.28
2019-04-22T21:47:14.535Z,98678.66
2019-04-22T21:49:45.865Z,98680.02
2019-04-22T21:52:13.471Z,98677.20
2019-04-22T21:54:46.692Z,98674.34
2019-04-22T21:57:18.957Z,98672.03
2019-04-22T21:59:46.149Z,98674.08
2019-04-22T22:02:25.657Z,98666.69
2019-04-22T22:04:48.903Z,98668.36
2019-04-22T22:07:07.536Z,98669.77
2019-04-22T22:09:49.023Z,98665.69
2019-04-22T22:12:17.116Z,98663.80
2019-04-22T22:14:50.124Z,98656.64
2019-04-22T22:17:20.650Z,98658.48
2019-04-22T22:19:49.869Z,98657.97
2019-04-22T22:22:39.820Z,98659.89
2019-04-22T22:24:50.148Z,98655.33
2019-04-22T22:27:18.526Z,98654.05
2019-04-22T22:30:16.412Z,98654.23
2019-04-22T22:32:25.445Z,98647.67
2019-04-22T22:34:50.741Z,98642.27
2019-04-22T22:37:13.402Z,98651.96
2019-04-22T22:39:42.918Z,98645.20
2019-04-22T22:42:03.645Z,98639.50
2019-04-22T22:44:36.880Z,98634.17
2019-04-22T22:47:18.096Z,98640.52
2019-04-22T22:49:53.068Z,98635.20
2019-04-22T22:52:44.632Z,98631.27
2019-04-22T22:54:54.143Z,98631.48
2019-04-22T22:57:27.646Z,98626.46
2019-04-22T22:59:57.795Z,98622.04
2019-04-22T23:02:24.849Z,98621.53
2019-04-22T23:04:57.713Z,98622.45
2019-04-22T23:07:28.929Z,98622.45
2019-04-22T23:09:53.664Z,98612.51
2019-04-22T23:12:34.590Z,98616.16
2019-04-22T23:14:55.755Z,98613.55
2019-04-22T23:17:11.850Z,98617.05
2019-04-22T23:19:40.649Z,98604.10
2019-04-22T23:22:20.546Z,98609.48
2019-04-22T23:25:01.237Z,98602.48
2019-04-22T23:27:40.412Z,98597.87
2019-04-22T23:30:05.313Z,98601.74
2019-04-22T23:32:38.842Z,98595.66
2019-04-22T23:35:17.984Z,98593.61
2019-04-22T23:37:51.000Z,98593.63
2019-04-22T23:42:53.857Z,98588.15
2019-04-22T23:45:21.176Z,98585.47
2019-04-22T23:47:44.889Z,98573.54
2019-04-22T23:50:26.474Z,98574.38
2019-04-22T23:52:54.419Z,98576.84
2019-04-22T23:55:29.821Z,98572.22
2019-04-22T23:58:19.095Z,98575.38
